This is the latest recevied weather packets stored in our database for station/object S56OA-13. If no packets are shown the sender has not sent any weather packets the latest 10 day(s).
| Time | Temp. | Humidity | Pressure | Rain* | Wind** | Luminosity | Snow |
|---|---|---|---|---|---|---|---|
| 1788362599 | 29.44° C | 42% | 918.3 hPa | - | - | - | - |
| 1788361537 | 27.78° C | 43% | 907.4 hPa | - | - | - | - |
| 1788360797 | 27.78° C | 43% | 907.4 hPa | - | - | - | - |
| 1788358997 | 28.33° C | 44% | 907.9 hPa | - | - | - | - |
| 1788357195 | 33.89° C | 43% | 929.7 hPa | - | - | - | - |
| 1788355394 | 35.56° C | 43% | 940.2 hPa | - | - | - | - |
| 1788353586 | 33.89° C | 44% | 934.1 hPa | - | - | - | - |
| 1788351789 | 36.11° C | 42% | 938.9 hPa | - | - | - | - |
| 1788349983 | 34.44° C | 43% | 933.2 hPa | - | - | - | - |
| 1788348182 | 31.67° C | 43% | 922.9 hPa | - | - | - | - |
| 1788346381 | 30.56° C | 43% | 919.5 hPa | - | - | - | - |
| 1788344580 | 30.56° C | 43% | 917.7 hPa | - | - | - | - |
| 1788342779 | 31.11° C | 42% | 917.4 hPa | - | - | - | - |
| 1788340987 | 30° C | 42% | 913.1 hPa | - | - | - | - |
| 1788339155 | 30.56° C | 42% | 913.8 hPa | - | - | - | - |
| 1788337329 | 30.56° C | 41% | 915 hPa | - | - | - | - |
| 1788335527 | 30° C | 41% | 911.4 hPa | - | - | - | - |
| 1788331925 | 25.56° C | 41% | 896.4 hPa | - | - | - | - |
| 1788330124 | 23.33° C | 41% | 890 hPa | - | - | - | - |
| 1788326521 | 18.33° C | 41% | 870.2 hPa | - | - | - | - |
| 1788324668 | 17.22° C | 42% | 867.8 hPa | - | - | - | - |
| 1788322867 | 16.67° C | 42% | 867.3 hPa | - | - | - | - |
| 1788321065 | 16.67° C | 43% | 867.1 hPa | - | - | - | - |
| 1788319263 | 16.67° C | 42% | 866.9 hPa | - | - | - | - |
| 1788317462 | 17.22° C | 42% | 867.6 hPa | - | - | - | - |
* Rain since midnight (hover to see other rain measurements)
** Current wind speed in m/s (hover to see current wind gust speed)